sensor_id;sensor_type;location;lat;lon;timestamp;P1;durP1;ratioP1;P2;durP2;ratioP2
1721;SDS011;858;53.190;8.596;2023-04-28T00:01:58;15.15;;;12.40;;
1721;SDS011;858;53.190;8.596;2023-04-28T00:04:24;18.27;;;12.20;;
1721;SDS011;858;53.190;8.596;2023-04-28T00:06:50;16.63;;;12.00;;
1721;SDS011;858;53.190;8.596;2023-04-28T00:09:19;17.30;;;12.30;;
1721;SDS011;858;53.190;8.596;2023-04-28T00:11:47;16.65;;;12.75;;
1721;SDS011;858;53.190;8.596;2023-04-28T00:14:13;16.17;;;12.00;;
1721;SDS011;858;53.190;8.596;2023-04-28T00:16:39;15.68;;;12.18;;
1721;SDS011;858;53.190;8.596;2023-04-28T00:19:06;15.77;;;12.70;;
1721;SDS011;858;53.190;8.596;2023-04-28T00:21:32;17.77;;;12.00;;
1721;SDS011;858;53.190;8.596;2023-04-28T00:23:59;19.45;;;12.88;;
1721;SDS011;858;53.190;8.596;2023-04-28T00:26:25;17.73;;;12.73;;
1721;SDS011;858;53.190;8.596;2023-04-28T00:28:53;17.40;;;12.35;;
1721;SDS011;858;53.190;8.596;2023-04-28T00:31:19;15.13;;;12.65;;
1721;SDS011;858;53.190;8.596;2023-04-28T00:33:46;18.38;;;13.07;;
1721;SDS011;858;53.190;8.596;2023-04-28T00:36:12;19.10;;;13.27;;
1721;SDS011;858;53.190;8.596;2023-04-28T00:38:38;19.38;;;12.32;;
1721;SDS011;858;53.190;8.596;2023-04-28T00:41:05;17.52;;;12.60;;
1721;SDS011;858;53.190;8.596;2023-04-28T00:43:31;17.92;;;13.20;;
1721;SDS011;858;53.190;8.596;2023-04-28T00:46:10;17.35;;;13.20;;
1721;SDS011;858;53.190;8.596;2023-04-28T00:48:38;17.90;;;12.90;;
1721;SDS011;858;53.190;8.596;2023-04-28T00:51:05;17.70;;;13.48;;
1721;SDS011;858;53.190;8.596;2023-04-28T00:53:32;21.10;;;13.50;;
1721;SDS011;858;53.190;8.596;2023-04-28T00:55:59;20.50;;;14.63;;
1721;SDS011;858;53.190;8.596;2023-04-28T00:58:25;21.90;;;14.40;;
1721;SDS011;858;53.190;8.596;2023-04-28T01:01:00;21.27;;;14.38;;
1721;SDS011;858;53.190;8.596;2023-04-28T01:03:28;25.20;;;15.48;;
1721;SDS011;858;53.190;8.596;2023-04-28T01:05:55;23.67;;;16.43;;
1721;SDS011;858;53.190;8.596;2023-04-28T01:08:22;21.00;;;15.30;;
1721;SDS011;858;53.190;8.596;2023-04-28T01:10:49;21.50;;;16.88;;
1721;SDS011;858;53.190;8.596;2023-04-28T01:13:15;22.92;;;15.88;;
1721;SDS011;858;53.190;8.596;2023-04-28T01:15:41;24.02;;;16.63;;
1721;SDS011;858;53.190;8.596;2023-04-28T01:18:08;26.10;;;16.50;;
1721;SDS011;858;53.190;8.596;2023-04-28T01:20:36;23.92;;;16.90;;
1721;SDS011;858;53.190;8.596;2023-04-28T01:23:02;25.65;;;15.95;;
1721;SDS011;858;53.190;8.596;2023-04-28T01:25:30;23.58;;;17.35;;
1721;SDS011;858;53.190;8.596;2023-04-28T01:27:57;24.10;;;16.45;;
1721;SDS011;858;53.190;8.596;2023-04-28T01:30:23;23.77;;;16.10;;
1721;SDS011;858;53.190;8.596;2023-04-28T01:32:49;26.33;;;17.13;;
1721;SDS011;858;53.190;8.596;2023-04-28T01:35:16;23.80;;;15.73;;
1721;SDS011;858;53.190;8.596;2023-04-28T01:37:42;25.25;;;17.05;;
1721;SDS011;858;53.190;8.596;2023-04-28T01:40:09;29.05;;;16.75;;
1721;SDS011;858;53.190;8.596;2023-04-28T01:42:37;22.52;;;17.05;;
1721;SDS011;858;53.190;8.596;2023-04-28T01:45:03;26.23;;;17.35;;
1721;SDS011;858;53.190;8.596;2023-04-28T01:47:30;27.58;;;16.48;;
1721;SDS011;858;53.190;8.596;2023-04-28T01:49:56;26.50;;;18.83;;
1721;SDS011;858;53.190;8.596;2023-04-28T01:52:22;25.08;;;17.40;;
1721;SDS011;858;53.190;8.596;2023-04-28T01:54:49;25.02;;;16.50;;
1721;SDS011;858;53.190;8.596;2023-04-28T01:57:16;28.23;;;17.35;;
1721;SDS011;858;53.190;8.596;2023-04-28T01:59:43;25.38;;;16.52;;
1721;SDS011;858;53.190;8.596;2023-04-28T02:02:10;25.45;;;17.30;;
1721;SDS011;858;53.190;8.596;2023-04-28T02:04:37;24.27;;;17.00;;
1721;SDS011;858;53.190;8.596;2023-04-28T02:07:07;23.60;;;17.20;;
1721;SDS011;858;53.190;8.596;2023-04-28T02:09:33;25.27;;;17.00;;
1721;SDS011;858;53.190;8.596;2023-04-28T02:12:00;27.23;;;17.67;;
1721;SDS011;858;53.190;8.596;2023-04-28T02:14:27;25.92;;;16.70;;
1721;SDS011;858;53.190;8.596;2023-04-28T02:16:57;26.37;;;17.20;;
1721;SDS011;858;53.190;8.596;2023-04-28T02:19:24;23.80;;;16.70;;
1721;SDS011;858;53.190;8.596;2023-04-28T02:21:50;25.90;;;16.92;;
1721;SDS011;858;53.190;8.596;2023-04-28T02:24:20;26.48;;;18.27;;
1721;SDS011;858;53.190;8.596;2023-04-28T02:26:46;24.08;;;16.08;;
1721;SDS011;858;53.190;8.596;2023-04-28T02:29:13;24.70;;;16.65;;
1721;SDS011;858;53.190;8.596;2023-04-28T02:31:39;23.75;;;15.98;;
1721;SDS011;858;53.190;8.596;2023-04-28T02:34:09;27.50;;;16.95;;
1721;SDS011;858;53.190;8.596;2023-04-28T02:36:35;22.63;;;16.05;;
1721;SDS011;858;53.190;8.596;2023-04-28T02:39:01;25.88;;;15.55;;
1721;SDS011;858;53.190;8.596;2023-04-28T02:41:28;24.40;;;15.80;;
1721;SDS011;858;53.190;8.596;2023-04-28T02:43:55;23.17;;;16.15;;
1721;SDS011;858;53.190;8.596;2023-04-28T02:46:22;24.08;;;16.15;;
1721;SDS011;858;53.190;8.596;2023-04-28T02:48:48;26.10;;;16.30;;
1721;SDS011;858;53.190;8.596;2023-04-28T02:51:16;23.60;;;16.10;;
1721;SDS011;858;53.190;8.596;2023-04-28T02:53:43;20.60;;;14.75;;
1721;SDS011;858;53.190;8.596;2023-04-28T02:56:09;23.63;;;15.43;;
1721;SDS011;858;53.190;8.596;2023-04-28T02:58:35;23.13;;;16.45;;
1721;SDS011;858;53.190;8.596;2023-04-28T03:01:02;26.63;;;15.93;;
1721;SDS011;858;53.190;8.596;2023-04-28T03:03:29;22.30;;;16.02;;
1721;SDS011;858;53.190;8.596;2023-04-28T03:05:55;23.23;;;15.63;;
1721;SDS011;858;53.190;8.596;2023-04-28T03:08:23;23.35;;;15.65;;
1721;SDS011;858;53.190;8.596;2023-04-28T03:10:49;21.95;;;15.35;;
1721;SDS011;858;53.190;8.596;2023-04-28T03:13:16;23.80;;;15.20;;
1721;SDS011;858;53.190;8.596;2023-04-28T03:15:42;21.90;;;15.35;;
1721;SDS011;858;53.190;8.596;2023-04-28T03:18:08;23.05;;;16.00;;
1721;SDS011;858;53.190;8.596;2023-04-28T03:20:35;21.45;;;15.45;;
1721;SDS011;858;53.190;8.596;2023-04-28T03:23:01;20.70;;;15.70;;
1721;SDS011;858;53.190;8.596;2023-04-28T03:25:29;20.60;;;14.65;;
1721;SDS011;858;53.190;8.596;2023-04-28T03:27:56;21.70;;;14.73;;
1721;SDS011;858;53.190;8.596;2023-04-28T03:30:22;23.95;;;16.02;;
1721;SDS011;858;53.190;8.596;2023-04-28T03:32:49;21.60;;;14.90;;
1721;SDS011;858;53.190;8.596;2023-04-28T03:35:15;22.55;;;14.98;;
1721;SDS011;858;53.190;8.596;2023-04-28T03:37:42;21.73;;;14.85;;
1721;SDS011;858;53.190;8.596;2023-04-28T03:40:09;20.92;;;15.18;;
1721;SDS011;858;53.190;8.596;2023-04-28T03:42:37;19.63;;;13.90;;
1721;SDS011;858;53.190;8.596;2023-04-28T03:45:03;20.75;;;13.55;;
1721;SDS011;858;53.190;8.596;2023-04-28T03:47:29;17.83;;;12.88;;
1721;SDS011;858;53.190;8.596;2023-04-28T03:49:56;19.42;;;13.55;;
1721;SDS011;858;53.190;8.596;2023-04-28T03:52:23;19.58;;;14.07;;
1721;SDS011;858;53.190;8.596;2023-04-28T03:54:49;19.98;;;12.98;;
1721;SDS011;858;53.190;8.596;2023-04-28T03:57:16;18.00;;;13.52;;
1721;SDS011;858;53.190;8.596;2023-04-28T03:59:44;18.15;;;12.90;;
1721;SDS011;858;53.190;8.596;2023-04-28T04:02:12;17.95;;;13.10;;
1721;SDS011;858;53.190;8.596;2023-04-28T04:04:38;19.45;;;13.23;;
1721;SDS011;858;53.190;8.596;2023-04-28T04:07:05;16.77;;;12.30;;
1721;SDS011;858;53.190;8.596;2023-04-28T04:09:31;17.95;;;12.57;;
1721;SDS011;858;53.190;8.596;2023-04-28T04:11:57;17.80;;;12.70;;
1721;SDS011;858;53.190;8.596;2023-04-28T04:14:25;19.52;;;12.93;;
1721;SDS011;858;53.190;8.596;2023-04-28T04:16:54;16.40;;;12.25;;
1721;SDS011;858;53.190;8.596;2023-04-28T04:19:20;19.38;;;12.55;;
1721;SDS011;858;53.190;8.596;2023-04-28T04:21:47;18.27;;;12.43;;
1721;SDS011;858;53.190;8.596;2023-04-28T04:24:14;20.20;;;12.30;;
1721;SDS011;858;53.190;8.596;2023-04-28T04:26:41;17.05;;;12.05;;
1721;SDS011;858;53.190;8.596;2023-04-28T04:29:07;15.90;;;11.10;;
1721;SDS011;858;53.190;8.596;2023-04-28T04:31:34;13.80;;;10.82;;
1721;SDS011;858;53.190;8.596;2023-04-28T04:34:02;15.77;;;11.70;;
1721;SDS011;858;53.190;8.596;2023-04-28T04:36:28;17.73;;;11.50;;
1721;SDS011;858;53.190;8.596;2023-04-28T04:38:55;16.30;;;11.50;;
1721;SDS011;858;53.190;8.596;2023-04-28T04:41:21;16.65;;;10.75;;
1721;SDS011;858;53.190;8.596;2023-04-28T04:43:48;16.92;;;10.68;;
1721;SDS011;858;53.190;8.596;2023-04-28T04:46:14;15.68;;;11.00;;
1721;SDS011;858;53.190;8.596;2023-04-28T04:48:41;14.20;;;10.98;;
1721;SDS011;858;53.190;8.596;2023-04-28T04:51:08;16.00;;;9.90;;
1721;SDS011;858;53.190;8.596;2023-04-28T04:53:35;15.23;;;10.35;;
1721;SDS011;858;53.190;8.596;2023-04-28T04:56:01;17.02;;;10.35;;
1721;SDS011;858;53.190;8.596;2023-04-28T04:58:28;14.50;;;10.20;;
1721;SDS011;858;53.190;8.596;2023-04-28T05:00:55;14.60;;;9.98;;
1721;SDS011;858;53.190;8.596;2023-04-28T05:03:22;14.35;;;9.70;;
1721;SDS011;858;53.190;8.596;2023-04-28T05:05:48;14.50;;;9.20;;
1721;SDS011;858;53.190;8.596;2023-04-28T05:08:16;14.15;;;9.57;;
1721;SDS011;858;53.190;8.596;2023-04-28T05:10:42;12.40;;;8.90;;
1721;SDS011;858;53.190;8.596;2023-04-28T05:13:09;11.40;;;9.23;;
1721;SDS011;858;53.190;8.596;2023-04-28T05:15:35;12.48;;;8.75;;
1721;SDS011;858;53.190;8.596;2023-04-28T05:18:02;11.10;;;8.90;;
1721;SDS011;858;53.190;8.596;2023-04-28T05:20:33;11.90;;;8.32;;
1721;SDS011;858;53.190;8.596;2023-04-28T05:23:00;11.10;;;8.50;;
1721;SDS011;858;53.190;8.596;2023-04-28T05:25:28;9.80;;;7.78;;
1721;SDS011;858;53.190;8.596;2023-04-28T05:27:54;13.32;;;7.97;;
1721;SDS011;858;53.190;8.596;2023-04-28T05:30:21;11.93;;;8.35;;
1721;SDS011;858;53.190;8.596;2023-04-28T05:32:47;10.35;;;7.53;;
1721;SDS011;858;53.190;8.596;2023-04-28T05:35:14;11.60;;;8.05;;
1721;SDS011;858;53.190;8.596;2023-04-28T05:37:40;12.10;;;8.30;;
1721;SDS011;858;53.190;8.596;2023-04-28T05:40:09;12.88;;;8.52;;
1721;SDS011;858;53.190;8.596;2023-04-28T05:42:37;14.07;;;8.55;;
1721;SDS011;858;53.190;8.596;2023-04-28T05:45:04;11.03;;;8.43;;
1721;SDS011;858;53.190;8.596;2023-04-28T05:47:31;9.15;;;7.32;;
1721;SDS011;858;53.190;8.596;2023-04-28T05:49:58;12.35;;;7.82;;
1721;SDS011;858;53.190;8.596;2023-04-28T05:52:25;11.63;;;8.20;;
1721;SDS011;858;53.190;8.596;2023-04-28T05:54:51;10.52;;;7.78;;
1721;SDS011;858;53.190;8.596;2023-04-28T05:57:17;11.07;;;8.33;;
1721;SDS011;858;53.190;8.596;2023-04-28T05:59:45;11.65;;;8.40;;
1721;SDS011;858;53.190;8.596;2023-04-28T06:02:11;9.82;;;7.65;;
1721;SDS011;858;53.190;8.596;2023-04-28T06:04:38;10.77;;;7.70;;
1721;SDS011;858;53.190;8.596;2023-04-28T06:07:04;9.52;;;7.30;;
1721;SDS011;858;53.190;8.596;2023-04-28T06:09:31;9.98;;;7.50;;
1721;SDS011;858;53.190;8.596;2023-04-28T06:11:57;10.43;;;7.22;;
1721;SDS011;858;53.190;8.596;2023-04-28T06:14:23;13.15;;;7.97;;
1721;SDS011;858;53.190;8.596;2023-04-28T06:16:51;11.60;;;7.18;;
1721;SDS011;858;53.190;8.596;2023-04-28T06:19:17;10.60;;;7.38;;
1721;SDS011;858;53.190;8.596;2023-04-28T06:21:44;9.77;;;7.83;;
1721;SDS011;858;53.190;8.596;2023-04-28T06:24:10;10.25;;;7.47;;
1721;SDS011;858;53.190;8.596;2023-04-28T06:26:37;7.82;;;7.00;;
1721;SDS011;858;53.190;8.596;2023-04-28T06:29:03;11.18;;;7.00;;
1721;SDS011;858;53.190;8.596;2023-04-28T06:31:29;10.85;;;7.47;;
1721;SDS011;858;53.190;8.596;2023-04-28T06:33:57;9.73;;;6.40;;
1721;SDS011;858;53.190;8.596;2023-04-28T06:36:24;8.55;;;6.47;;
1721;SDS011;858;53.190;8.596;2023-04-28T06:38:50;10.85;;;7.07;;
1721;SDS011;858;53.190;8.596;2023-04-28T06:41:17;8.43;;;6.22;;
1721;SDS011;858;53.190;8.596;2023-04-28T06:43:43;8.45;;;7.10;;
1721;SDS011;858;53.190;8.596;2023-04-28T06:46:10;12.45;;;6.80;;
1721;SDS011;858;53.190;8.596;2023-04-28T06:48:36;10.30;;;7.15;;
1721;SDS011;858;53.190;8.596;2023-04-28T06:51:04;9.38;;;6.20;;
1721;SDS011;858;53.190;8.596;2023-04-28T06:53:30;9.45;;;6.25;;
1721;SDS011;858;53.190;8.596;2023-04-28T06:55:57;10.90;;;6.40;;
1721;SDS011;858;53.190;8.596;2023-04-28T06:58:24;8.52;;;6.07;;
1721;SDS011;858;53.190;8.596;2023-04-28T07:00:50;9.40;;;6.35;;
1721;SDS011;858;53.190;8.596;2023-04-28T07:03:17;11.50;;;6.77;;
1721;SDS011;858;53.190;8.596;2023-04-28T07:05:44;15.07;;;6.32;;
1721;SDS011;858;53.190;8.596;2023-04-28T07:08:11;7.10;;;5.63;;
1721;SDS011;858;53.190;8.596;2023-04-28T07:10:38;8.55;;;6.28;;
1721;SDS011;858;53.190;8.596;2023-04-28T07:13:04;8.70;;;5.95;;
1721;SDS011;858;53.190;8.596;2023-04-28T07:15:32;8.60;;;6.00;;
1721;SDS011;858;53.190;8.596;2023-04-28T07:17:58;8.98;;;6.00;;
1721;SDS011;858;53.190;8.596;2023-04-28T07:20:24;10.60;;;6.07;;
1721;SDS011;858;53.190;8.596;2023-04-28T07:22:51;10.55;;;6.20;;
1721;SDS011;858;53.190;8.596;2023-04-28T07:25:19;9.90;;;6.10;;
1721;SDS011;858;53.190;8.596;2023-04-28T07:27:45;8.55;;;6.22;;
1721;SDS011;858;53.190;8.596;2023-04-28T07:30:14;7.90;;;5.88;;
1721;SDS011;858;53.190;8.596;2023-04-28T07:32:40;8.40;;;5.95;;
1721;SDS011;858;53.190;8.596;2023-04-28T07:35:08;11.07;;;6.47;;
1721;SDS011;858;53.190;8.596;2023-04-28T07:37:34;8.00;;;5.50;;
1721;SDS011;858;53.190;8.596;2023-04-28T07:40:01;9.48;;;6.30;;
1721;SDS011;858;53.190;8.596;2023-04-28T07:42:29;8.43;;;6.40;;
1721;SDS011;858;53.190;8.596;2023-04-28T07:44:57;7.60;;;6.10;;
1721;SDS011;858;53.190;8.596;2023-04-28T07:47:24;8.20;;;6.50;;
1721;SDS011;858;53.190;8.596;2023-04-28T07:49:50;9.57;;;6.30;;
1721;SDS011;858;53.190;8.596;2023-04-28T07:52:17;10.73;;;6.80;;
1721;SDS011;858;53.190;8.596;2023-04-28T07:54:43;8.60;;;6.40;;
1721;SDS011;858;53.190;8.596;2023-04-28T07:57:09;11.40;;;6.30;;
1721;SDS011;858;53.190;8.596;2023-04-28T07:59:37;9.40;;;6.63;;
1721;SDS011;858;53.190;8.596;2023-04-28T08:02:03;8.35;;;6.78;;
1721;SDS011;858;53.190;8.596;2023-04-28T08:04:30;10.60;;;6.27;;
1721;SDS011;858;53.190;8.596;2023-04-28T08:06:58;13.25;;;6.50;;
1721;SDS011;858;53.190;8.596;2023-04-28T08:09:25;9.05;;;5.90;;
1721;SDS011;858;53.190;8.596;2023-04-28T08:11:51;10.27;;;6.63;;
1721;SDS011;858;53.190;8.596;2023-04-28T08:14:18;10.95;;;6.53;;
1721;SDS011;858;53.190;8.596;2023-04-28T08:16:47;9.00;;;6.30;;
1721;SDS011;858;53.190;8.596;2023-04-28T08:19:13;8.65;;;6.45;;
1721;SDS011;858;53.190;8.596;2023-04-28T08:21:40;11.43;;;6.95;;
1721;SDS011;858;53.190;8.596;2023-04-28T08:24:06;11.23;;;6.78;;
1721;SDS011;858;53.190;8.596;2023-04-28T08:26:34;8.30;;;6.20;;
1721;SDS011;858;53.190;8.596;2023-04-28T08:29:01;8.30;;;5.80;;
1721;SDS011;858;53.190;8.596;2023-04-28T08:31:27;8.13;;;6.30;;
1721;SDS011;858;53.190;8.596;2023-04-28T08:33:55;9.02;;;5.95;;
1721;SDS011;858;53.190;8.596;2023-04-28T08:36:21;10.30;;;6.95;;
1721;SDS011;858;53.190;8.596;2023-04-28T08:38:49;8.67;;;6.37;;
1721;SDS011;858;53.190;8.596;2023-04-28T08:41:15;8.30;;;6.30;;
1721;SDS011;858;53.190;8.596;2023-04-28T08:43:42;8.20;;;6.40;;
1721;SDS011;858;53.190;8.596;2023-04-28T08:46:09;11.15;;;7.20;;
1721;SDS011;858;53.190;8.596;2023-04-28T08:48:38;8.77;;;6.75;;
1721;SDS011;858;53.190;8.596;2023-04-28T08:51:06;10.82;;;6.90;;
1721;SDS011;858;53.190;8.596;2023-04-28T08:53:35;9.77;;;6.28;;
1721;SDS011;858;53.190;8.596;2023-04-28T08:56:02;8.73;;;6.60;;
1721;SDS011;858;53.190;8.596;2023-04-28T08:58:30;13.55;;;6.78;;
1721;SDS011;858;53.190;8.596;2023-04-28T09:00:56;9.85;;;6.70;;
1721;SDS011;858;53.190;8.596;2023-04-28T09:03:23;10.23;;;7.10;;
1721;SDS011;858;53.190;8.596;2023-04-28T09:05:51;9.77;;;6.90;;
1721;SDS011;858;53.190;8.596;2023-04-28T09:08:19;11.30;;;7.30;;
1721;SDS011;858;53.190;8.596;2023-04-28T09:10:46;9.20;;;6.90;;
1721;SDS011;858;53.190;8.596;2023-04-28T09:13:22;7.97;;;7.00;;
1721;SDS011;858;53.190;8.596;2023-04-28T09:15:49;9.93;;;7.63;;
1721;SDS011;858;53.190;8.596;2023-04-28T09:18:16;12.02;;;7.25;;
1721;SDS011;858;53.190;8.596;2023-04-28T09:20:42;12.93;;;8.18;;
1721;SDS011;858;53.190;8.596;2023-04-28T09:23:13;9.68;;;7.03;;
1721;SDS011;858;53.190;8.596;2023-04-28T09:25:41;11.20;;;8.05;;
1721;SDS011;858;53.190;8.596;2023-04-28T09:28:20;12.40;;;8.18;;
1721;SDS011;858;53.190;8.596;2023-04-28T09:30:46;10.85;;;7.75;;
1721;SDS011;858;53.190;8.596;2023-04-28T09:33:13;15.15;;;8.52;;
1721;SDS011;858;53.190;8.596;2023-04-28T09:35:41;15.43;;;9.00;;
1721;SDS011;858;53.190;8.596;2023-04-28T09:38:09;12.65;;;8.55;;
1721;SDS011;858;53.190;8.596;2023-04-28T09:40:49;11.45;;;8.60;;
1721;SDS011;858;53.190;8.596;2023-04-28T09:43:21;13.68;;;8.80;;
1721;SDS011;858;53.190;8.596;2023-04-28T09:45:48;12.00;;;9.23;;
1721;SDS011;858;53.190;8.596;2023-04-28T09:48:14;14.18;;;9.10;;
1721;SDS011;858;53.190;8.596;2023-04-28T09:50:42;10.17;;;8.47;;
1721;SDS011;858;53.190;8.596;2023-04-28T09:53:10;12.75;;;9.23;;
1721;SDS011;858;53.190;8.596;2023-04-28T09:55:37;11.80;;;8.35;;
1721;SDS011;858;53.190;8.596;2023-04-28T09:58:06;13.13;;;9.93;;
1721;SDS011;858;53.190;8.596;2023-04-28T10:00:34;14.68;;;9.45;;
1721;SDS011;858;53.190;8.596;2023-04-28T10:03:01;15.80;;;9.95;;
1721;SDS011;858;53.190;8.596;2023-04-28T10:05:27;12.73;;;9.32;;
1721;SDS011;858;53.190;8.596;2023-04-28T10:07:54;14.60;;;9.50;;
1721;SDS011;858;53.190;8.596;2023-04-28T10:10:21;13.45;;;9.55;;
1721;SDS011;858;53.190;8.596;2023-04-28T10:12:49;15.15;;;9.32;;
1721;SDS011;858;53.190;8.596;2023-04-28T10:15:17;13.20;;;10.05;;
1721;SDS011;858;53.190;8.596;2023-04-28T10:17:44;12.60;;;10.10;;
1721;SDS011;858;53.190;8.596;2023-04-28T10:20:11;15.88;;;9.50;;
1721;SDS011;858;53.190;8.596;2023-04-28T10:22:45;13.35;;;9.27;;
1721;SDS011;858;53.190;8.596;2023-04-28T10:25:19;12.10;;;8.90;;
1721;SDS011;858;53.190;8.596;2023-04-28T10:27:50;15.40;;;10.38;;
1721;SDS011;858;53.190;8.596;2023-04-28T10:30:18;16.35;;;9.98;;
1721;SDS011;858;53.190;8.596;2023-04-28T10:32:45;12.38;;;9.18;;
1721;SDS011;858;53.190;8.596;2023-04-28T10:38:03;13.33;;;10.20;;
1721;SDS011;858;53.190;8.596;2023-04-28T10:40:30;10.73;;;9.63;;
1721;SDS011;858;53.190;8.596;2023-04-28T10:42:58;12.60;;;10.02;;
1721;SDS011;858;53.190;8.596;2023-04-28T10:48:10;16.93;;;10.70;;
1721;SDS011;858;53.190;8.596;2023-04-28T10:50:37;14.30;;;10.50;;
1721;SDS011;858;53.190;8.596;2023-04-28T10:53:03;14.02;;;10.13;;
1721;SDS011;858;53.190;8.596;2023-04-28T10:55:30;14.65;;;9.73;;
1721;SDS011;858;53.190;8.596;2023-04-28T10:58:29;14.68;;;11.07;;
1721;SDS011;858;53.190;8.596;2023-04-28T11:00:58;12.07;;;10.30;;
1721;SDS011;858;53.190;8.596;2023-04-28T11:03:48;17.40;;;10.70;;
1721;SDS011;858;53.190;8.596;2023-04-28T11:06:18;15.13;;;11.27;;
1721;SDS011;858;53.190;8.596;2023-04-28T11:08:45;13.40;;;10.82;;
1721;SDS011;858;53.190;8.596;2023-04-28T11:11:15;14.50;;;10.85;;
1721;SDS011;858;53.190;8.596;2023-04-28T11:13:42;16.60;;;11.57;;
1721;SDS011;858;53.190;8.596;2023-04-28T11:16:12;12.33;;;11.03;;
1721;SDS011;858;53.190;8.596;2023-04-28T11:18:47;14.15;;;10.93;;
1721;SDS011;858;53.190;8.596;2023-04-28T11:21:15;13.27;;;10.40;;
1721;SDS011;858;53.190;8.596;2023-04-28T11:23:41;15.10;;;10.90;;
1721;SDS011;858;53.190;8.596;2023-04-28T11:26:08;14.15;;;10.63;;
1721;SDS011;858;53.190;8.596;2023-04-28T11:28:35;13.00;;;10.30;;
1721;SDS011;858;53.190;8.596;2023-04-28T11:31:11;14.10;;;11.07;;
1721;SDS011;858;53.190;8.596;2023-04-28T11:33:38;13.80;;;10.20;;
1721;SDS011;858;53.190;8.596;2023-04-28T11:36:04;14.20;;;11.00;;
1721;SDS011;858;53.190;8.596;2023-04-28T11:38:43;15.45;;;10.85;;
1721;SDS011;858;53.190;8.596;2023-04-28T11:41:09;15.53;;;11.23;;
1721;SDS011;858;53.190;8.596;2023-04-28T11:43:36;15.43;;;11.10;;
1721;SDS011;858;53.190;8.596;2023-04-28T11:46:02;14.63;;;11.43;;
1721;SDS011;858;53.190;8.596;2023-04-28T11:48:28;15.07;;;11.63;;
1721;SDS011;858;53.190;8.596;2023-04-28T11:50:55;15.55;;;11.40;;
1721;SDS011;858;53.190;8.596;2023-04-28T11:53:39;16.93;;;11.40;;
1721;SDS011;858;53.190;8.596;2023-04-28T11:56:07;13.80;;;12.18;;
1721;SDS011;858;53.190;8.596;2023-04-28T11:58:33;13.68;;;11.23;;
1721;SDS011;858;53.190;8.596;2023-04-28T12:01:06;16.40;;;11.37;;
1721;SDS011;858;53.190;8.596;2023-04-28T12:03:40;15.35;;;11.52;;
1721;SDS011;858;53.190;8.596;2023-04-28T12:06:07;14.23;;;11.30;;
1721;SDS011;858;53.190;8.596;2023-04-28T12:08:33;13.73;;;11.77;;
1721;SDS011;858;53.190;8.596;2023-04-28T12:11:07;15.37;;;11.63;;
1721;SDS011;858;53.190;8.596;2023-04-28T12:13:35;19.10;;;11.47;;
1721;SDS011;858;53.190;8.596;2023-04-28T12:16:02;15.95;;;12.10;;
1721;SDS011;858;53.190;8.596;2023-04-28T12:18:29;14.87;;;10.83;;
1721;SDS011;858;53.190;8.596;2023-04-28T12:20:57;13.90;;;9.93;;
1721;SDS011;858;53.190;8.596;2023-04-28T12:23:30;16.50;;;11.77;;
1721;SDS011;858;53.190;8.596;2023-04-28T12:25:57;13.63;;;10.75;;
1721;SDS011;858;53.190;8.596;2023-04-28T12:28:34;14.35;;;11.18;;
1721;SDS011;858;53.190;8.596;2023-04-28T12:31:02;14.38;;;10.70;;
1721;SDS011;858;53.190;8.596;2023-04-28T12:33:29;13.43;;;11.00;;
1721;SDS011;858;53.190;8.596;2023-04-28T12:35:58;14.05;;;10.75;;
1721;SDS011;858;53.190;8.596;2023-04-28T12:38:25;16.23;;;11.50;;
1721;SDS011;858;53.190;8.596;2023-04-28T12:40:52;15.43;;;11.50;;
1721;SDS011;858;53.190;8.596;2023-04-28T12:43:18;14.18;;;10.65;;
1721;SDS011;858;53.190;8.596;2023-04-28T12:45:48;16.30;;;11.50;;
1721;SDS011;858;53.190;8.596;2023-04-28T12:48:16;18.02;;;12.32;;
1721;SDS011;858;53.190;8.596;2023-04-28T12:50:42;17.13;;;11.60;;
1721;SDS011;858;53.190;8.596;2023-04-28T12:53:09;16.73;;;11.90;;
1721;SDS011;858;53.190;8.596;2023-04-28T12:55:36;13.73;;;12.32;;
1721;SDS011;858;53.190;8.596;2023-04-28T12:58:04;17.00;;;12.25;;
1721;SDS011;858;53.190;8.596;2023-04-28T13:00:32;15.20;;;12.80;;
1721;SDS011;858;53.190;8.596;2023-04-28T13:03:00;15.50;;;12.32;;
1721;SDS011;858;53.190;8.596;2023-04-28T13:05:27;13.77;;;10.93;;
1721;SDS011;858;53.190;8.596;2023-04-28T13:07:53;14.13;;;11.10;;
1721;SDS011;858;53.190;8.596;2023-04-28T13:10:25;14.35;;;11.65;;
1721;SDS011;858;53.190;8.596;2023-04-28T13:12:52;13.55;;;10.88;;
1721;SDS011;858;53.190;8.596;2023-04-28T13:15:19;14.85;;;12.10;;
1721;SDS011;858;53.190;8.596;2023-04-28T13:17:46;14.25;;;11.95;;
1721;SDS011;858;53.190;8.596;2023-04-28T13:20:15;13.60;;;10.88;;
1721;SDS011;858;53.190;8.596;2023-04-28T13:22:41;15.95;;;11.65;;
1721;SDS011;858;53.190;8.596;2023-04-28T13:25:09;14.07;;;11.40;;
1721;SDS011;858;53.190;8.596;2023-04-28T13:27:35;16.80;;;11.57;;
1721;SDS011;858;53.190;8.596;2023-04-28T13:30:02;14.80;;;11.70;;
1721;SDS011;858;53.190;8.596;2023-04-28T13:32:29;16.92;;;11.95;;
1721;SDS011;858;53.190;8.596;2023-04-28T13:34:55;47.28;;;21.95;;
1721;SDS011;858;53.190;8.596;2023-04-28T13:37:23;16.00;;;11.82;;
1721;SDS011;858;53.190;8.596;2023-04-28T13:39:49;49.05;;;23.13;;
1721;SDS011;858;53.190;8.596;2023-04-28T13:42:16;16.37;;;11.97;;
1721;SDS011;858;53.190;8.596;2023-04-28T13:44:42;14.15;;;11.25;;
1721;SDS011;858;53.190;8.596;2023-04-28T13:47:10;14.00;;;10.68;;
1721;SDS011;858;53.190;8.596;2023-04-28T13:49:36;14.75;;;10.80;;
1721;SDS011;858;53.190;8.596;2023-04-28T13:52:03;15.60;;;10.90;;
1721;SDS011;858;53.190;8.596;2023-04-28T13:54:31;16.80;;;11.40;;
1721;SDS011;858;53.190;8.596;2023-04-28T13:56:58;12.93;;;10.85;;
1721;SDS011;858;53.190;8.596;2023-04-28T13:59:26;15.65;;;11.20;;
1721;SDS011;858;53.190;8.596;2023-04-28T14:01:53;15.82;;;11.70;;
1721;SDS011;858;53.190;8.596;2023-04-28T14:04:19;15.15;;;11.10;;
1721;SDS011;858;53.190;8.596;2023-04-28T14:06:46;16.60;;;11.02;;
1721;SDS011;858;53.190;8.596;2023-04-28T14:09:14;15.50;;;11.90;;
1721;SDS011;858;53.190;8.596;2023-04-28T14:11:43;16.95;;;11.60;;
1721;SDS011;858;53.190;8.596;2023-04-28T14:14:10;16.33;;;11.25;;
1721;SDS011;858;53.190;8.596;2023-04-28T14:16:36;12.93;;;10.60;;
1721;SDS011;858;53.190;8.596;2023-04-28T14:19:03;11.80;;;10.57;;
1721;SDS011;858;53.190;8.596;2023-04-28T14:21:29;12.18;;;10.27;;
1721;SDS011;858;53.190;8.596;2023-04-28T14:23:55;12.85;;;11.02;;
1721;SDS011;858;53.190;8.596;2023-04-28T14:26:22;14.13;;;11.18;;
1721;SDS011;858;53.190;8.596;2023-04-28T14:28:50;12.30;;;10.07;;
1721;SDS011;858;53.190;8.596;2023-04-28T14:31:16;17.40;;;10.65;;
1721;SDS011;858;53.190;8.596;2023-04-28T14:33:43;12.25;;;9.75;;
1721;SDS011;858;53.190;8.596;2023-04-28T14:36:10;14.15;;;10.25;;
1721;SDS011;858;53.190;8.596;2023-04-28T14:38:38;15.07;;;10.35;;
1721;SDS011;858;53.190;8.596;2023-04-28T14:41:04;11.90;;;9.38;;
1721;SDS011;858;53.190;8.596;2023-04-28T14:43:30;11.05;;;9.15;;
1721;SDS011;858;53.190;8.596;2023-04-28T14:45:58;13.20;;;10.25;;
1721;SDS011;858;53.190;8.596;2023-04-28T14:48:24;12.43;;;10.40;;
1721;SDS011;858;53.190;8.596;2023-04-28T14:50:51;12.75;;;10.32;;
1721;SDS011;858;53.190;8.596;2023-04-28T14:53:17;17.13;;;11.20;;
1721;SDS011;858;53.190;8.596;2023-04-28T14:55:44;13.83;;;10.60;;
1721;SDS011;858;53.190;8.596;2023-04-28T14:58:11;14.18;;;10.70;;
1721;SDS011;858;53.190;8.596;2023-04-28T15:00:37;13.50;;;11.00;;
1721;SDS011;858;53.190;8.596;2023-04-28T15:03:05;12.38;;;10.98;;
1721;SDS011;858;53.190;8.596;2023-04-28T15:05:31;12.32;;;11.13;;
1721;SDS011;858;53.190;8.596;2023-04-28T15:07:58;15.10;;;10.77;;
1721;SDS011;858;53.190;8.596;2023-04-28T15:10:25;15.43;;;11.68;;
1721;SDS011;858;53.190;8.596;2023-04-28T15:12:54;16.70;;;12.50;;
1721;SDS011;858;53.190;8.596;2023-04-28T15:15:22;14.10;;;11.73;;